createdAt,value
2022-12-11T00:00:52.390Z,99296.91
2022-12-11T00:03:40.143Z,99292.03
2022-12-11T00:06:09.041Z,99287.09
2022-12-11T00:08:37.144Z,99297.34
2022-12-11T00:11:04.154Z,99286.59
2022-12-11T00:13:31.436Z,99284.34
2022-12-11T00:15:59.504Z,99278.28
2022-12-11T00:18:26.985Z,99285.34
2022-12-11T00:20:54.009Z,99290.41
2022-12-11T00:23:21.504Z,99291.09
2022-12-11T00:25:48.606Z,99282.97
2022-12-11T00:28:22.620Z,99281.94
2022-12-11T00:30:50.089Z,99271.22
2022-12-11T00:33:18.024Z,99275.38
2022-12-11T00:35:47.518Z,99264.63
2022-12-11T00:38:17.215Z,99253.09
2022-12-11T00:40:44.757Z,99240.69
2022-12-11T00:43:13.346Z,99249.25
2022-12-11T00:45:46.856Z,99242.28
2022-12-11T00:48:14.506Z,99236.84
2022-12-11T00:50:41.598Z,99237.53
2022-12-11T00:53:09.338Z,99238.88
2022-12-11T00:55:38.643Z,99237.94
2022-12-11T00:58:07.650Z,99233.34
2022-12-11T01:00:34.618Z,99226.16
2022-12-11T01:03:02.244Z,99226.78
2022-12-11T01:05:31.537Z,99231.03
2022-12-11T01:07:59.213Z,99225.03
2022-12-11T01:10:27.195Z,99207.59
2022-12-11T01:13:06.967Z,99199.50
2022-12-11T01:15:43.550Z,99195.91
2022-12-11T01:18:14.113Z,99194.91
2022-12-11T01:20:42.752Z,99187.13
2022-12-11T01:23:13.106Z,99179.41
2022-12-11T01:25:40.904Z,99174.72
2022-12-11T01:28:08.973Z,99172.06
2022-12-11T01:30:36.692Z,99178.06
2022-12-11T01:33:04.663Z,99165.81
2022-12-11T01:35:31.649Z,99159.84
2022-12-11T01:37:59.439Z,99151.97
2022-12-11T01:40:26.463Z,99147.44
2022-12-11T01:42:53.784Z,99144.72
2022-12-11T01:45:29.726Z,99139.34
2022-12-11T01:48:11.031Z,99122.75
2022-12-11T01:51:09.543Z,99126.16
2022-12-11T01:53:45.934Z,99120.91
2022-12-11T01:56:13.353Z,99122.69
2022-12-11T01:58:51.627Z,99116.69
2022-12-11T02:01:35.878Z,99106.84
2022-12-11T02:04:04.498Z,99099.09
2022-12-11T02:06:51.175Z,99098.09
2022-12-11T02:09:31.627Z,99094.53
2022-12-11T02:12:07.826Z,99090.13
2022-12-11T02:14:53.409Z,99085.69
2022-12-11T02:17:51.248Z,99082.28
2022-12-11T02:20:38.191Z,99078.69
2022-12-11T02:23:44.178Z,99084.97
2022-12-11T02:26:42.989Z,99095.41
2022-12-11T02:29:18.392Z,99101.38
2022-12-11T02:31:59.152Z,99105.59
2022-12-11T02:34:44.858Z,99104.59
2022-12-11T02:37:21.973Z,99097.50
2022-12-11T02:39:54.887Z,99097.09
2022-12-11T02:42:26.266Z,99097.81
2022-12-11T02:44:57.240Z,99098.66
2022-12-11T02:47:28.432Z,99095.72
2022-12-11T02:49:58.300Z,99085.16
2022-12-11T02:52:27.800Z,99081.75
2022-12-11T02:54:59.760Z,99085.00
2022-12-11T02:57:42.527Z,99064.66
2022-12-11T03:00:10.695Z,99059.38
2022-12-11T03:02:40.499Z,99065.16
2022-12-11T03:05:08.794Z,99052.75
2022-12-11T03:07:40.683Z,99060.44
2022-12-11T03:10:10.497Z,99052.44
2022-12-11T03:12:43.117Z,99058.50
2022-12-11T03:15:17.307Z,99053.03
2022-12-11T03:18:08.458Z,99039.00
2022-12-11T03:20:44.105Z,99042.19
2022-12-11T03:24:03.868Z,99042.75
2022-12-11T03:26:36.488Z,99046.81
2022-12-11T03:29:19.957Z,99037.06
2022-12-11T03:31:57.652Z,99034.25
2022-12-11T03:34:34.092Z,99040.00
2022-12-11T03:37:03.165Z,99021.56
2022-12-11T03:39:36.329Z,99017.00
2022-12-11T03:42:08.569Z,99000.06
2022-12-11T03:44:37.008Z,98995.53
2022-12-11T03:47:08.143Z,98998.88
2022-12-11T03:49:40.794Z,98987.47
2022-12-11T03:52:09.734Z,98978.25
2022-12-11T03:54:39.604Z,98977.41
2022-12-11T03:57:09.513Z,98967.81
2022-12-11T03:59:36.924Z,98972.75
2022-12-11T04:02:11.167Z,98973.44
2022-12-11T04:04:39.669Z,98958.25
2022-12-11T04:07:07.764Z,98960.06
2022-12-11T04:09:35.771Z,98942.19
2022-12-11T04:12:02.935Z,98940.31
2022-12-11T04:14:49.640Z,98930.66
2022-12-11T04:17:36.662Z,98928.78
2022-12-11T04:20:23.708Z,98937.25
2022-12-11T04:23:09.595Z,98936.03
2022-12-11T04:25:37.273Z,98933.16
2022-12-11T04:28:04.220Z,98927.59
2022-12-11T04:30:34.293Z,98916.88
2022-12-11T04:33:01.570Z,98910.63
2022-12-11T04:35:29.582Z,98904.41
2022-12-11T04:37:56.617Z,98896.78
2022-12-11T04:40:24.580Z,98881.19
2022-12-11T04:42:51.700Z,98883.00
2022-12-11T04:45:21.924Z,98898.66
2022-12-11T04:47:48.990Z,98894.91
2022-12-11T04:50:16.866Z,98899.88
2022-12-11T04:52:44.056Z,98893.38
2022-12-11T04:55:12.759Z,98879.38
2022-12-11T04:57:40.149Z,98879.16
2022-12-11T05:00:11.079Z,98886.53
2022-12-11T05:02:39.083Z,98875.09
2022-12-11T05:05:11.021Z,98879.19
2022-12-11T05:07:38.761Z,98861.44
2022-12-11T05:10:11.138Z,98865.63
2022-12-11T05:12:39.329Z,98847.94
2022-12-11T05:15:11.106Z,98849.56
2022-12-11T05:17:43.181Z,98845.06
2022-12-11T05:20:11.149Z,98837.53
2022-12-11T05:22:38.971Z,98840.56
2022-12-11T05:25:07.147Z,98850.03
2022-12-11T05:27:38.817Z,98851.28
2022-12-11T05:30:08.541Z,98849.38
2022-12-11T05:32:35.950Z,98842.69
2022-12-11T05:35:05.783Z,98845.53
2022-12-11T05:37:34.660Z,98843.84
2022-12-11T05:40:19.658Z,98842.25
2022-12-11T05:42:46.906Z,98832.19
2022-12-11T05:45:14.795Z,98840.53
2022-12-11T05:47:42.981Z,98833.06
2022-12-11T05:50:11.082Z,98817.91
2022-12-11T05:52:39.022Z,98811.47
2022-12-11T05:55:10.223Z,98819.13
2022-12-11T05:57:39.516Z,98802.94
2022-12-11T06:00:10.396Z,98816.53
2022-12-11T06:02:37.554Z,98795.16
2022-12-11T06:05:10.506Z,98805.06
2022-12-11T06:07:38.003Z,98816.88
2022-12-11T06:10:07.928Z,98810.22
2022-12-11T06:15:17.821Z,98823.91
2022-12-11T06:17:44.842Z,98820.00
2022-12-11T06:20:13.625Z,98819.69
2022-12-11T06:22:41.391Z,98803.44
2022-12-11T06:25:10.824Z,98801.25
2022-12-11T06:33:04.154Z,98786.72
2022-12-11T06:35:36.149Z,98791.53
2022-12-11T06:38:11.205Z,98781.78
2022-12-11T06:40:54.660Z,98782.22
2022-12-11T06:43:21.960Z,98784.56
2022-12-11T06:45:49.352Z,98784.34
2022-12-11T06:48:16.661Z,98792.84
2022-12-11T06:50:44.489Z,98778.72
2022-12-11T06:53:18.241Z,98774.81
2022-12-11T06:55:48.687Z,98772.25
2022-12-11T06:58:16.931Z,98781.38
2022-12-11T07:00:44.373Z,98775.03
2022-12-11T07:03:11.880Z,98771.63
2022-12-11T07:05:41.468Z,98762.38
2022-12-11T07:08:10.166Z,98759.31
2022-12-11T07:10:40.607Z,98762.03
2022-12-11T07:13:07.654Z,98748.66
2022-12-11T07:15:40.522Z,98746.53
2022-12-11T07:18:08.957Z,98739.41
2022-12-11T07:20:36.554Z,98745.13
2022-12-11T07:23:04.021Z,98737.88
2022-12-11T07:25:32.344Z,98735.03
2022-12-11T07:27:59.279Z,98745.31
2022-12-11T07:30:28.291Z,98742.56
2022-12-11T07:32:55.363Z,98739.66
2022-12-11T07:35:22.851Z,98727.66
2022-12-11T07:37:51.122Z,98730.59
2022-12-11T07:40:18.601Z,98728.56
2022-12-11T07:42:50.014Z,98724.72
2022-12-11T07:45:18.048Z,98718.22
2022-12-11T07:47:46.423Z,98727.47
2022-12-11T07:50:14.681Z,98710.25
2022-12-11T07:52:41.892Z,98725.06
2022-12-11T07:55:26.639Z,98724.72
2022-12-11T07:57:55.313Z,98708.50
2022-12-11T08:00:26.148Z,98719.31
2022-12-11T08:02:53.859Z,98717.13
2022-12-11T08:05:20.895Z,98704.19
2022-12-11T08:10:35.546Z,98715.72
2022-12-11T08:13:03.371Z,98708.69
2022-12-11T08:15:30.606Z,98715.84
2022-12-11T08:17:58.513Z,98718.38
2022-12-11T08:20:25.913Z,98715.63
2022-12-11T08:22:59.140Z,98710.31
2022-12-11T08:25:26.659Z,98701.34
2022-12-11T08:28:09.149Z,98710.72
2022-12-11T08:30:44.516Z,98701.63
2022-12-11T08:33:11.543Z,98698.03
2022-12-11T08:35:41.811Z,98691.72
2022-12-11T08:38:08.919Z,98692.34
2022-12-11T08:40:36.694Z,98699.38
2022-12-11T08:43:05.386Z,98697.47
2022-12-11T08:45:34.243Z,98694.06
2022-12-11T08:48:04.981Z,98693.72
2022-12-11T08:50:32.346Z,98682.34
2022-12-11T08:52:59.450Z,98695.53
2022-12-11T08:55:27.150Z,98688.91
2022-12-11T08:57:55.467Z,98667.84
2022-12-11T09:00:25.705Z,98660.69
2022-12-11T09:02:55.648Z,98659.75
2022-12-11T09:05:23.336Z,98656.72
2022-12-11T09:07:50.429Z,98645.22
2022-12-11T09:10:18.186Z,98649.25
2022-12-11T09:12:45.229Z,98646.22
2022-12-11T09:15:13.017Z,98641.25
2022-12-11T09:17:40.287Z,98639.47
2022-12-11T09:20:08.297Z,98639.09
2022-12-11T09:22:35.274Z,98632.66
2022-12-11T09:25:07.741Z,98617.41
2022-12-11T09:27:35.652Z,98618.75
2022-12-11T09:30:03.398Z,98614.28
2022-12-11T09:32:30.579Z,98614.28
2022-12-11T09:34:58.065Z,98614.03
2022-12-11T09:37:25.438Z,98606.06
2022-12-11T09:39:55.415Z,98597.22
2022-12-11T09:42:59.817Z,98594.31
2022-12-11T09:46:12.059Z,98596.47
2022-12-11T09:48:45.692Z,98579.78
2022-12-11T09:51:45.280Z,98588.38
2022-12-11T09:54:18.406Z,98564.41
2022-12-11T09:56:55.747Z,98572.28
2022-12-11T09:59:38.331Z,98564.28
2022-12-11T10:02:56.561Z,98547.09
2022-12-11T10:06:17.492Z,98549.63
2022-12-11T10:09:12.612Z,98548.16
2022-12-11T10:12:01.764Z,98531.06
2022-12-11T10:14:52.377Z,98520.19
2022-12-11T10:17:33.452Z,98508.41
2022-12-11T10:20:26.495Z,98519.28
2022-12-11T10:23:09.129Z,98508.13
2022-12-11T10:25:45.193Z,98501.59
2022-12-11T10:28:20.391Z,98494.31
2022-12-11T10:31:04.426Z,98483.16
2022-12-11T10:33:41.340Z,98474.75
2022-12-11T10:36:10.784Z,98474.22
2022-12-11T10:38:57.948Z,98464.16
2022-12-11T10:41:42.242Z,98461.94
2022-12-11T10:44:29.050Z,98464.69
2022-12-11T10:47:11.660Z,98454.63
2022-12-11T10:49:46.302Z,98458.00
2022-12-11T10:52:25.985Z,98461.69
2022-12-11T10:55:01.359Z,98459.78
2022-12-11T10:57:35.585Z,98448.75
2022-12-11T11:00:06.847Z,98453.69
2022-12-11T11:02:43.638Z,98430.56
2022-12-11T11:05:28.775Z,98438.28
2022-12-11T11:08:28.097Z,98442.78
2022-12-11T11:11:00.684Z,98451.50
2022-12-11T11:13:31.551Z,98453.03
2022-12-11T11:16:11.904Z,98435.22
2022-12-11T11:18:46.305Z,98422.03
2022-12-11T11:21:19.372Z,98426.25
2022-12-11T11:23:53.621Z,98415.44
2022-12-11T11:26:23.161Z,98410.94
2022-12-11T11:28:55.301Z,98433.28
2022-12-11T11:31:35.581Z,98435.84
2022-12-11T11:34:16.505Z,98437.78
2022-12-11T11:36:43.293Z,98460.19
2022-12-11T11:39:36.993Z,98442.75
2022-12-11T11:42:21.257Z,98434.25
2022-12-11T11:45:07.168Z,98430.34
2022-12-11T11:47:44.581Z,98438.19
2022-12-11T11:50:27.325Z,98437.34
2022-12-11T11:53:13.092Z,98436.63
2022-12-11T11:56:02.759Z,98438.06
2022-12-11T11:58:42.872Z,98444.09
2022-12-11T12:01:19.892Z,98451.97
2022-12-11T12:03:48.685Z,98455.47
2022-12-11T12:06:25.955Z,98450.97
2022-12-11T12:09:01.592Z,98453.53
2022-12-11T12:11:39.136Z,98447.59
2022-12-11T12:14:51.775Z,98466.19
2022-12-11T12:17:23.347Z,98460.06
2022-12-11T12:19:56.567Z,98437.56
2022-12-11T12:22:49.740Z,98427.31
2022-12-11T12:25:41.227Z,98440.25
2022-12-11T12:28:20.653Z,98463.72
2022-12-11T12:31:30.096Z,98459.50
2022-12-11T12:34:18.114Z,98452.59
2022-12-11T12:37:14.119Z,98445.72
2022-12-11T12:44:11.352Z,98465.94
2022-12-11T12:46:54.917Z,98470.06
2022-12-11T12:49:40.333Z,98465.25
2022-12-11T12:52:27.128Z,98458.84
2022-12-11T12:55:22.263Z,98466.41
2022-12-11T12:58:07.880Z,98454.59
2022-12-11T13:00:45.217Z,98471.13
2022-12-11T13:03:30.458Z,98467.91
2022-12-11T13:06:02.088Z,98481.97
2022-12-11T13:08:37.922Z,98477.88
2022-12-11T13:11:12.133Z,98471.69
2022-12-11T13:13:51.610Z,98468.56
2022-12-11T13:16:27.285Z,98461.69
2022-12-11T13:18:57.212Z,98478.66
2022-12-11T13:21:37.649Z,98484.56
2022-12-11T13:24:28.504Z,98487.22
2022-12-11T13:26:57.212Z,98489.16
2022-12-11T13:30:00.918Z,98493.09
2022-12-11T13:33:19.365Z,98494.06
2022-12-11T13:35:53.937Z,98493.88
2022-12-11T13:38:29.893Z,98494.72
2022-12-11T13:41:02.626Z,98493.31
2022-12-11T13:43:39.045Z,98484.84
2022-12-11T13:49:01.116Z,98491.19
2022-12-11T13:51:32.700Z,98495.94
2022-12-11T13:54:17.961Z,98519.13
2022-12-11T13:57:00.564Z,98526.53
2022-12-11T13:59:36.383Z,98535.50
2022-12-11T14:02:43.001Z,98537.75
2022-12-11T14:08:28.883Z,98538.81
2022-12-11T14:11:05.033Z,98535.91
2022-12-11T14:17:07.050Z,98540.09
2022-12-11T14:20:01.654Z,98538.78
2022-12-11T14:22:32.351Z,98544.13
2022-12-11T14:25:03.718Z,98548.28
2022-12-11T14:27:34.012Z,98547.94
2022-12-11T14:30:11.287Z,98555.22
2022-12-11T14:32:46.101Z,98543.38
2022-12-11T14:35:39.139Z,98550.91
2022-12-11T14:38:18.203Z,98545.00
2022-12-11T14:40:52.568Z,98556.56
2022-12-11T14:43:35.102Z,98561.56
2022-12-11T14:46:18.195Z,98562.50
2022-12-11T14:48:59.141Z,98562.63
2022-12-11T14:51:40.690Z,98567.50
2022-12-11T14:54:20.382Z,98562.19
2022-12-11T14:56:49.813Z,98569.59
2022-12-11T14:59:31.464Z,98567.28
2022-12-11T15:02:21.264Z,98567.69
2022-12-11T15:05:07.678Z,98580.13
2022-12-11T15:07:43.876Z,98574.78
2022-12-11T15:10:42.579Z,98565.84
2022-12-11T15:13:11.461Z,98581.09
2022-12-11T15:15:46.490Z,98580.63
2022-12-11T15:18:23.395Z,98587.16
2022-12-11T15:21:03.724Z,98599.03
2022-12-11T15:23:31.426Z,98600.25
2022-12-11T15:26:05.717Z,98592.13
2022-12-11T15:28:48.829Z,98594.34
2022-12-11T15:31:34.760Z,98609.69
2022-12-11T15:34:03.272Z,98595.41
2022-12-11T15:36:35.827Z,98595.03
2022-12-11T15:39:09.165Z,98604.22
2022-12-11T15:41:42.074Z,98601.69
2022-12-11T15:44:20.296Z,98613.00
2022-12-11T15:47:17.953Z,98599.66
2022-12-11T15:49:46.340Z,98609.34
2022-12-11T15:52:17.666Z,98604.38
2022-12-11T15:54:46.035Z,98601.72
2022-12-11T15:57:21.268Z,98598.31
2022-12-11T15:59:54.134Z,98603.03
2022-12-11T16:05:38.570Z,98621.50
2022-12-11T16:08:06.553Z,98629.81
2022-12-11T16:10:33.824Z,98645.78
2022-12-11T16:13:37.867Z,98652.75
2022-12-11T16:16:08.909Z,98659.09
2022-12-11T16:18:38.175Z,98653.78
2022-12-11T16:21:06.663Z,98657.09
2022-12-11T16:23:34.137Z,98666.75
2022-12-11T16:26:07.226Z,98662.19
2022-12-11T16:28:35.749Z,98670.91
2022-12-11T16:31:03.092Z,98674.75
2022-12-11T16:33:41.632Z,98685.97
2022-12-11T16:36:19.702Z,98687.91
2022-12-11T16:38:54.205Z,98686.22
2022-12-11T16:41:25.776Z,98682.81
2022-12-11T16:43:57.127Z,98688.34
2022-12-11T16:46:24.655Z,98690.28
2022-12-11T16:48:52.404Z,98691.34
2022-12-11T16:51:19.650Z,98681.19
2022-12-11T16:53:57.317Z,98699.53
2022-12-11T16:56:25.161Z,98703.38
2022-12-11T16:58:53.679Z,98709.78
2022-12-11T17:01:20.859Z,98701.41
2022-12-11T17:03:52.764Z,98703.34
2022-12-11T17:06:28.164Z,98686.75
2022-12-11T17:09:02.016Z,98696.56
2022-12-11T17:11:29.188Z,98698.13
2022-12-11T17:14:00.566Z,98700.25
2022-12-11T17:16:30.538Z,98717.56
2022-12-11T17:19:00.852Z,98725.03
2022-12-11T17:21:53.902Z,98712.94
2022-12-11T17:24:20.552Z,98723.31
2022-12-11T17:26:47.642Z,98727.84
2022-12-11T17:29:15.138Z,98738.38
2022-12-11T17:31:42.594Z,98726.81
2022-12-11T17:34:12.417Z,98730.94
2022-12-11T17:36:39.533Z,98726.56
2022-12-11T17:39:14.055Z,98741.13
2022-12-11T17:41:41.389Z,98737.63
2022-12-11T17:44:15.211Z,98739.19
2022-12-11T17:46:43.230Z,98722.13
2022-12-11T17:49:15.089Z,98736.25
2022-12-11T17:51:42.396Z,98740.94
2022-12-11T17:54:10.153Z,98739.00
2022-12-11T17:56:40.753Z,98744.22
2022-12-11T17:59:18.938Z,98746.16
2022-12-11T18:01:55.298Z,98742.22
2022-12-11T18:04:43.115Z,98755.59
2022-12-11T18:07:15.918Z,98751.41
2022-12-11T18:09:44.326Z,98759.25
2022-12-11T18:12:14.135Z,98754.91
2022-12-11T18:14:45.291Z,98760.75
2022-12-11T18:18:05.855Z,98765.84
2022-12-11T18:21:08.449Z,98769.03
2022-12-11T18:59:37.319Z,98843.47
2022-12-11T19:06:55.548Z,98844.97
2022-12-11T19:17:14.668Z,98871.44
2022-12-11T19:19:58.291Z,98893.66
2022-12-11T19:22:25.801Z,98893.50
2022-12-11T19:24:59.456Z,98893.06
2022-12-11T19:27:37.777Z,98875.69
2022-12-11T19:30:22.928Z,98892.72
2022-12-11T19:32:59.276Z,98887.09
2022-12-11T19:35:28.888Z,98895.03
2022-12-11T19:37:58.704Z,98889.19
2022-12-11T19:40:30.941Z,98867.91
2022-12-11T19:42:59.799Z,98883.34
2022-12-11T19:45:27.350Z,98892.00
2022-12-11T19:47:57.865Z,98889.00
2022-12-11T19:50:39.932Z,98906.13
2022-12-11T19:53:23.926Z,98898.81
2022-12-11T19:55:59.302Z,98908.59
2022-12-11T19:58:50.574Z,98909.84
2022-12-11T20:01:24.946Z,98916.91
2022-12-11T20:04:20.524Z,98932.16
2022-12-11T20:06:49.647Z,98937.19
2022-12-11T20:09:37.008Z,98912.03
2022-12-11T20:12:28.105Z,98930.31
2022-12-11T20:14:56.125Z,98915.56
2022-12-11T20:17:29.780Z,98922.78
2022-12-11T20:19:56.996Z,98916.28
2022-12-11T20:22:27.786Z,98926.13
2022-12-11T20:24:55.895Z,98910.22
2022-12-11T20:27:26.378Z,98924.34
2022-12-11T20:29:53.881Z,98921.31
2022-12-11T20:32:25.253Z,98921.53
2022-12-11T20:34:59.094Z,98918.19
2022-12-11T20:37:27.136Z,98927.97
2022-12-11T20:39:54.873Z,98927.19
2022-12-11T20:42:23.114Z,98920.75
2022-12-11T20:44:53.269Z,98938.13
2022-12-11T20:47:21.180Z,98939.31
2022-12-11T20:49:59.310Z,98958.44
2022-12-11T20:52:52.899Z,98952.25
2022-12-11T20:55:38.577Z,98953.59
2022-12-11T20:58:06.079Z,98958.28
2022-12-11T21:00:36.309Z,98946.34
2022-12-11T21:03:04.343Z,98963.56
2022-12-11T21:05:44.185Z,98965.41
2022-12-11T21:08:12.931Z,98955.16
2022-12-11T21:10:45.038Z,98940.59
2022-12-11T21:20:28.110Z,98928.38
2022-12-11T21:24:03.243Z,98916.75
2022-12-11T21:26:34.026Z,98926.91
2022-12-11T21:29:48.656Z,98942.91
2022-12-11T21:32:31.499Z,98973.22
2022-12-11T21:35:17.016Z,98969.16
2022-12-11T21:41:56.017Z,98978.84
2022-12-11T21:47:31.449Z,98996.56
2022-12-11T21:50:07.546Z,99013.34
2022-12-11T21:52:37.428Z,99028.75
2022-12-11T21:55:06.301Z,99011.28
2022-12-11T21:57:33.543Z,99001.69
2022-12-11T22:00:02.119Z,99001.97
2022-12-11T22:02:42.185Z,98991.63
2022-12-11T22:05:10.277Z,98981.56
2022-12-11T22:07:43.452Z,98982.63
2022-12-11T22:10:17.007Z,98986.66
2022-12-11T22:12:48.779Z,98984.59
2022-12-11T22:15:22.571Z,98990.13
2022-12-11T22:17:52.659Z,98998.69
2022-12-11T22:20:20.063Z,98992.56
2022-12-11T22:22:47.573Z,98985.66
2022-12-11T22:25:14.966Z,98976.97
2022-12-11T22:27:42.524Z,98990.97
2022-12-11T22:30:10.274Z,98977.34
2022-12-11T22:32:37.631Z,98974.88
2022-12-11T22:35:05.077Z,98992.47
2022-12-11T22:37:34.888Z,98993.53
2022-12-11T22:40:01.734Z,99007.22
2022-12-11T22:42:29.349Z,99003.13
2022-12-11T22:45:00.582Z,99007.53
2022-12-11T22:47:29.250Z,99025.88
2022-12-11T22:49:56.357Z,99023.50
2022-12-11T22:52:25.602Z,99041.78
2022-12-11T22:54:52.941Z,99070.66
2022-12-11T22:57:20.595Z,99060.28
2022-12-11T22:59:50.199Z,99054.06
2022-12-11T23:02:19.131Z,99040.38
2022-12-11T23:04:46.543Z,99041.28
2022-12-11T23:07:20.729Z,99036.22
2022-12-11T23:09:47.875Z,99026.25
2022-12-11T23:12:16.260Z,99022.84
2022-12-11T23:14:43.960Z,99030.97
2022-12-11T23:17:12.730Z,99034.69
2022-12-11T23:19:40.167Z,99048.81
2022-12-11T23:22:08.928Z,99045.34
2022-12-11T23:24:35.870Z,99059.38
2022-12-11T23:27:03.573Z,99077.81
2022-12-11T23:29:31.327Z,99095.13
2022-12-11T23:31:59.541Z,99081.03
2022-12-11T23:34:26.846Z,99097.66
2022-12-11T23:36:58.184Z,99116.00
2022-12-11T23:39:26.500Z,99111.59
2022-12-11T23:42:03.008Z,99121.97
2022-12-11T23:44:30.060Z,99125.34
2022-12-11T23:46:58.171Z,99127.19
2022-12-11T23:49:27.204Z,99136.84
2022-12-11T23:51:59.958Z,99125.53
2022-12-11T23:55:00.026Z,99130.75
2022-12-11T23:57:43.714Z,99125.00
